Time;durP1;ratioP1;P1;durP2;ratioP2;P2;SDS_P1;SDS_P2;PMS_P1;PMS_P2;Temp;Humidity;BMP_temperature;BMP_pressure;BME280_temperature;BME280_humidity;BME280_pressure;Samples;Min_cycle;Max_cycle;Signal;HPM_P1;HPM_P2
2022/08/14 14:43:10;;;;;;;5.60;2.88;;;23.40;65.50;;;;;;5884603;23;21040;-33
2022/08/14 14:45:38;;;;;;;4.18;2.25;;;23.50;65.80;;;;;;4917808;29;20052;-34
2022/08/14 14:48:06;;;;;;;4.30;2.30;;;23.50;65.40;;;;;;4921796;29;20031;-34
2022/08/14 14:50:33;;;;;;;4.03;1.95;;;23.50;65.40;;;;;;4918328;29;20043;-34
2022/08/14 14:52:59;;;;;;;5.60;2.20;;;23.50;64.90;;;;;;4925548;29;20097;-34
2022/08/14 14:55:26;;;;;;;5.55;2.38;;;23.40;65.00;;;;;;4932771;29;20039;-34
2022/08/14 14:57:52;;;;;;;4.90;2.10;;;23.40;65.20;;;;;;4937536;29;20038;-34
2022/08/14 15:05:32;;;;;;;4.07;1.40;;;23.40;65.80;;;;;;5555622;23;20067;-49
2022/08/14 15:07:57;;;;;;;6.63;1.20;;;23.40;66.00;;;;;;4956053;29;20374;-51
2022/08/14 15:10:24;;;;;;;2.63;1.50;;;23.30;65.60;;;;;;4955668;29;20023;-51
2022/08/14 15:12:50;;;;;;;4.40;1.60;;;23.30;65.80;;;;;;4949167;29;20059;-58
2022/08/14 15:15:15;;;;;;;2.00;1.38;;;23.40;66.10;;;;;;4954206;29;20039;-62
2022/08/14 15:17:41;;;;;;;2.92;1.42;;;23.50;65.90;;;;;;4954631;29;20028;-61
2022/08/14 15:20:11;;;;;;;2.20;1.27;;;23.50;66.00;;;;;;4949754;28;20031;-44
2022/08/14 15:22:38;;;;;;;;;;;23.50;65.60;;;;;;4951767;29;20070;-56
2022/08/14 15:25:06;;;;;;;4.95;1.20;;;23.50;66.70;;;;;;4954988;29;19919;-48
2022/08/14 15:27:33;;;;;;;2.17;1.20;;;23.50;65.60;;;;;;4954989;29;20394;-49
2022/08/14 15:29:58;;;;;;;10.68;2.38;;;23.50;65.60;;;;;;4951945;28;20027;-60
2022/08/14 15:32:24;;;;;;;2.80;1.52;;;23.40;65.60;;;;;;4954254;29;20114;-54
2022/08/14 15:34:49;;;;;;;1.73;1.42;;;23.30;66.00;;;;;;4954826;29;20471;-55
2022/08/14 15:37:15;;;;;;;6.05;1.55;;;23.30;66.10;;;;;;4947059;29;20036;-51
2022/08/14 15:39:41;;;;;;;2.55;1.48;;;23.30;66.00;;;;;;4947713;28;20410;-56
2022/08/14 15:42:08;;;;;;;2.40;1.52;;;23.30;66.00;;;;;;4946853;29;20534;-54
2022/08/14 15:44:33;;;;;;;2.78;2.08;;;23.50;65.90;;;;;;4951000;29;20031;-56
2022/08/14 15:46:59;;;;;;;2.22;1.50;;;23.50;65.70;;;;;;4949018;28;20114;-55
2022/08/14 15:49:28;;;;;;;2.88;1.85;;;23.60;65.50;;;;;;4951993;29;20750;-56
2022/08/14 15:51:56;;;;;;;2.38;1.55;;;23.60;65.60;;;;;;4952838;29;20029;-52
2022/08/14 15:54:22;;;;;;;4.60;1.65;;;23.60;65.40;;;;;;4948059;29;20039;-57
2022/08/14 15:56:56;;;;;;;2.95;1.50;;;23.60;65.30;;;;;;4950557;28;20515;-55
2022/08/14 15:59:22;;;;;;;1.55;1.20;;;23.60;65.50;;;;;;4949068;29;20503;-54
2022/08/14 16:01:51;;;;;;;3.72;1.10;;;23.60;65.40;;;;;;4950906;28;20033;-56
2022/08/14 16:04:20;;;;;;;9.50;1.40;;;23.60;66.40;;;;;;4940418;29;20032;-53
2022/08/14 16:06:46;;;;;;;3.40;1.10;;;23.60;66.00;;;;;;4929069;29;20047;-55
2022/08/14 16:09:12;;;;;;;4.13;1.33;;;23.60;66.10;;;;;;4934155;29;20028;-58
2022/08/14 16:11:37;;;;;;;4.15;1.20;;;23.60;66.30;;;;;;4932263;29;20601;-58
2022/08/14 16:14:03;;;;;;;4.22;1.20;;;23.60;66.30;;;;;;4928269;29;20103;-55
2022/08/14 16:16:30;;;;;;;4.32;1.30;;;23.50;66.40;;;;;;4926877;29;20024;-58
2022/08/14 16:18:57;;;;;;;2.38;0.98;;;23.50;66.70;;;;;;4928131;29;20526;-58
2022/08/14 16:21:28;;;;;;;1.67;1.00;;;23.50;66.70;;;;;;4927970;29;20086;-59
2022/08/14 16:23:55;;;;;;;1.38;0.90;;;23.50;66.70;;;;;;4931696;29;20020;-59
2022/08/14 16:26:25;;;;;;;2.90;1.00;;;23.40;66.80;;;;;;4930468;29;20047;-59
2022/08/14 16:29:03;;;;;;;3.53;1.30;;;23.30;66.90;;;;;;4928462;29;20094;-56
2022/08/14 16:31:28;;;;;;;4.85;1.35;;;23.40;67.10;;;;;;4909140;29;20036;-57
2022/08/14 16:33:56;;;;;;;1.90;1.00;;;23.50;67.20;;;;;;4926459;29;20042;-59
2022/08/14 16:36:22;;;;;;;2.15;1.05;;;23.50;66.90;;;;;;4932499;29;20036;-58
2022/08/14 16:38:57;;;;;;;1.33;0.98;;;23.60;66.90;;;;;;4925731;29;20036;-58
2022/08/14 16:41:27;;;;;;;3.95;1.20;;;23.60;66.80;;;;;;4923466;29;20387;-59
2022/08/14 16:44:01;;;;;;;2.80;1.35;;;23.60;66.70;;;;;;4925861;29;20122;-58
2022/08/14 16:46:30;;;;;;;2.22;1.17;;;23.60;66.60;;;;;;4931958;29;20044;-58
2022/08/14 16:48:58;;;;;;;2.40;1.10;;;23.60;66.80;;;;;;4931440;29;20043;-58
2022/08/14 16:51:25;;;;;;;2.85;1.40;;;23.60;67.00;;;;;;4929483;29;20543;-57
2022/08/14 16:53:51;;;;;;;3.17;1.45;;;23.60;67.30;;;;;;4926641;29;20388;-57
2022/08/14 16:56:20;;;;;;;2.10;1.23;;;23.60;67.50;;;;;;4928741;29;20024;-57
2022/08/14 16:58:50;;;;;;;2.90;1.38;;;23.60;67.50;;;;;;4923985;29;20067;-59
2022/08/14 17:01:19;;;;;;;3.72;1.48;;;23.70;67.50;;;;;;4923304;29;20118;-58
2022/08/14 17:03:58;;;;;;;1.85;1.00;;;23.70;67.50;;;;;;4927449;29;20036;-57
2022/08/14 17:06:40;;;;;;;1.88;1.10;;;23.60;67.70;;;;;;4925553;29;20543;-57
2022/08/14 17:09:20;;;;;;;1.60;1.08;;;23.70;67.80;;;;;;4929707;29;20110;-57
2022/08/14 17:11:52;;;;;;;5.57;1.38;;;23.70;68.50;;;;;;4929047;29;20083;-58
2022/08/14 17:14:17;;;;;;;1.77;1.08;;;23.70;67.60;;;;;;4928852;29;20439;-58
2022/08/14 17:16:43;;;;;;;2.70;1.10;;;23.70;67.50;;;;;;4924734;29;20147;-58
2022/08/14 17:19:09;;;;;;;1.50;1.15;;;23.70;67.40;;;;;;4923669;29;20444;-58
2022/08/14 17:21:38;;;;;;;2.03;1.10;;;23.70;67.50;;;;;;4931364;29;20067;-57
2022/08/14 17:24:09;;;;;;;3.10;1.42;;;23.60;67.50;;;;;;4925211;29;20042;-58
2022/08/14 17:26:42;;;;;;;2.33;0.93;;;23.60;67.50;;;;;;4930655;29;20086;-58
2022/08/14 17:29:22;;;;;;;2.47;0.88;;;23.60;67.60;;;;;;4926534;29;20031;-58
2022/08/14 17:31:48;;;;;;;;;;;23.50;67.80;;;;;;4929866;29;20031;-59
2022/08/14 17:34:15;;;;;;;2.65;0.90;;;23.50;68.10;;;;;;4927889;29;19915;-58
2022/08/14 17:36:51;;;;;;;0.77;0.60;;;23.50;67.90;;;;;;4926622;29;20114;-58
2022/08/14 17:39:19;;;;;;;1.02;0.90;;;23.50;67.80;;;;;;4921967;29;20123;-58
2022/08/14 17:41:51;;;;;;;1.38;0.80;;;23.50;67.90;;;;;;4932317;29;20087;-58
2022/08/14 17:44:21;;;;;;;2.28;1.02;;;23.50;67.80;;;;;;4926977;29;20086;-58
2022/08/14 17:46:50;;;;;;;4.57;0.95;;;23.50;67.70;;;;;;4932507;29;20040;-58
2022/08/14 17:49:22;;;;;;;2.83;1.38;;;23.50;67.50;;;;;;4931652;29;20083;-58
2022/08/14 17:52:04;;;;;;;0.98;0.88;;;23.60;67.50;;;;;;4924430;29;20391;-58
2022/08/14 17:54:33;;;;;;;0.50;0.50;;;23.50;67.20;;;;;;4931508;29;20028;-58
2022/08/14 17:57:21;;;;;;;3.17;0.65;;;23.50;67.20;;;;;;4931069;29;20032;-59
2022/08/14 17:59:48;;;;;;;1.55;0.80;;;23.50;67.20;;;;;;4925704;29;20527;-59
2022/08/14 18:02:16;;;;;;;0.85;0.80;;;23.50;67.10;;;;;;4926112;29;20050;-58
2022/08/14 18:04:42;;;;;;;2.03;0.90;;;23.40;67.00;;;;;;4926114;29;20413;-58
2022/08/14 18:07:11;;;;;;;1.17;0.68;;;23.30;67.20;;;;;;4927568;29;20058;-58
2022/08/14 18:09:40;;;;;;;0.88;0.80;;;23.30;67.20;;;;;;4927093;29;20028;-58
2022/08/14 18:12:06;;;;;;;1.97;0.80;;;23.30;67.40;;;;;;4926783;29;20031;-57
2022/08/14 18:14:35;;;;;;;0.50;0.47;;;23.30;67.20;;;;;;4922724;29;20336;-58
2022/08/14 18:17:02;;;;;;;1.05;0.80;;;23.30;67.00;;;;;;4927934;29;20042;-58
2022/08/14 18:19:29;;;;;;;1.42;0.80;;;23.40;67.10;;;;;;4920371;29;20440;-59
2022/08/14 18:22:01;;;;;;;1.50;0.75;;;23.50;66.90;;;;;;4929060;29;20028;-59
2022/08/14 18:24:27;;;;;;;2.00;0.70;;;23.40;66.70;;;;;;4920782;29;20043;-60
2022/08/14 18:27:12;;;;;;;3.30;0.80;;;23.40;66.80;;;;;;4926956;29;20101;-59
2022/08/14 18:29:53;;;;;;;2.20;1.00;;;23.40;66.80;;;;;;4926370;29;20107;-59
2022/08/14 18:32:31;;;;;;;4.03;1.10;;;23.30;66.60;;;;;;4931867;29;20028;-58
2022/08/14 18:35:17;;;;;;;3.83;1.00;;;23.20;66.90;;;;;;4932669;29;20198;-58
2022/08/14 18:37:44;;;;;;;2.10;0.90;;;23.10;67.50;;;;;;4929135;29;20039;-58
2022/08/14 18:40:16;;;;;;;1.17;0.90;;;23.10;67.40;;;;;;4931256;29;20055;-59
2022/08/14 18:42:51;;;;;;;2.55;1.08;;;23.00;67.40;;;;;;4928237;29;20083;-59
2022/08/14 18:45:22;;;;;;;1.63;0.90;;;23.00;67.40;;;;;;4924655;29;20043;-59
2022/08/14 18:48:07;;;;;;;3.85;1.17;;;23.00;67.50;;;;;;4926171;29;20039;-58
2022/08/14 18:50:45;;;;;;;1.30;0.90;;;23.00;67.70;;;;;;4925052;29;20066;-59
2022/08/14 18:53:11;;;;;;;1.20;1.10;;;22.90;67.70;;;;;;4918601;29;20032;-57
2022/08/14 18:55:37;;;;;;;1.67;1.00;;;22.90;67.80;;;;;;4923294;29;20032;-56
2022/08/14 18:58:03;;;;;;;1.88;1.30;;;22.90;67.80;;;;;;4933419;29;20036;-59
2022/08/14 19:00:31;;;;;;;1.90;1.20;;;22.90;67.50;;;;;;4930979;29;20040;-59
2022/08/14 19:03:08;;;;;;;1.17;1.05;;;22.90;67.60;;;;;;4930134;29;20024;-58
2022/08/14 19:05:36;;;;;;;1.90;1.35;;;22.80;67.60;;;;;;4921829;29;20080;-58
2022/08/14 19:08:37;;;;;;;1.52;1.10;;;22.80;67.90;;;;;;4934911;29;20028;-58
2022/08/14 19:11:05;;;;;;;1.60;1.20;;;22.80;68.10;;;;;;4915420;29;20032;-59
2022/08/14 19:13:39;;;;;;;5.07;1.52;;;22.80;68.00;;;;;;4929091;29;20095;-57
2022/08/14 19:16:17;;;;;;;2.45;1.55;;;22.70;68.10;;;;;;4926376;29;20032;-57
2022/08/14 19:18:51;;;;;;;5.22;1.70;;;22.70;68.20;;;;;;4928590;29;20036;-56
2022/08/14 19:21:28;;;;;;;4.57;1.30;;;22.70;68.30;;;;;;4930950;29;20032;-58
2022/08/14 19:24:32;;;;;;;3.92;1.20;;;22.70;68.40;;;;;;4932430;29;20031;-59
2022/08/14 19:27:14;;;;;;;1.45;1.30;;;22.60;68.40;;;;;;4872158;29;20041;-59
2022/08/14 19:29:40;;;;;;;4.40;1.20;;;22.40;68.70;;;;;;4928634;29;20036;-59
2022/08/14 19:32:32;;;;;;;2.15;1.05;;;22.10;69.20;;;;;;4929370;29;20027;-56
2022/08/14 19:34:58;;;;;;;1.58;1.25;;;21.90;69.80;;;;;;4924376;29;20131;-59
2022/08/14 19:37:47;;;;;;;2.05;1.30;;;21.80;69.90;;;;;;4934353;29;20115;-57
2022/08/14 19:40:30;;;;;;;3.10;1.25;;;21.90;70.10;;;;;;4935436;29;20390;-58
2022/08/14 19:42:57;;;;;;;2.50;1.10;;;21.90;69.70;;;;;;4928183;29;20039;-60
2022/08/14 19:45:28;;;;;;;1.55;0.95;;;21.90;70.10;;;;;;4929339;29;20036;-58
2022/08/14 19:47:55;;;;;;;0.95;0.90;;;21.70;70.10;;;;;;4929029;29;20132;-57
2022/08/14 19:50:23;;;;;;;1.10;0.80;;;21.70;70.10;;;;;;4934943;29;20048;-57
2022/08/14 19:53:04;;;;;;;1.30;0.75;;;21.60;70.20;;;;;;4932830;29;20032;-59
2022/08/14 19:55:31;;;;;;;2.42;0.93;;;21.60;70.30;;;;;;4930706;29;20517;-59
2022/08/14 19:57:58;;;;;;;1.20;0.82;;;21.60;70.20;;;;;;4934149;29;20032;-59
2022/08/14 20:00:24;;;;;;;1.40;0.82;;;21.60;70.20;;;;;;4925978;29;20032;-58
2022/08/14 20:02:58;;;;;;;2.10;1.00;;;21.60;70.20;;;;;;4932679;29;20023;-58
2022/08/14 20:05:23;;;;;;;1.30;0.90;;;21.70;70.40;;;;;;4931456;29;20090;-57
2022/08/14 20:07:49;;;;;;;0.70;0.70;;;21.70;70.10;;;;;;4933085;29;20387;-59
2022/08/14 20:10:33;;;;;;;1.17;0.90;;;21.70;70.00;;;;;;4926876;29;20028;-59
2022/08/14 20:13:03;;;;;;;1.40;0.70;;;21.70;70.10;;;;;;4931841;29;20115;-59
2022/08/14 20:15:35;;;;;;;2.35;1.02;;;21.60;70.00;;;;;;4926283;29;20633;-59
2022/08/14 20:18:03;;;;;;;1.58;0.80;;;21.50;70.10;;;;;;4933224;29;20036;-57
2022/08/14 20:20:31;;;;;;;1.55;0.80;;;21.40;70.40;;;;;;4926694;29;20045;-58
2022/08/14 20:23:08;;;;;;;0.90;0.70;;;21.40;70.60;;;;;;4930205;29;20031;-59
2022/08/14 20:25:37;;;;;;;3.80;0.90;;;21.40;70.70;;;;;;4929349;29;20180;-58
2022/08/14 20:28:21;;;;;;;1.42;0.77;;;21.40;70.50;;;;;;4929884;29;20031;-60
2022/08/14 20:30:47;;;;;;;2.00;0.73;;;21.30;70.50;;;;;;4930819;29;20032;-57
2022/08/14 20:33:15;;;;;;;0.95;0.80;;;21.30;70.60;;;;;;4927816;29;20404;-57
2022/08/14 20:35:40;;;;;;;1.95;0.68;;;21.20;70.70;;;;;;4931608;29;20082;-57
2022/08/14 20:38:16;;;;;;;1.70;0.80;;;21.20;70.80;;;;;;4931087;29;20036;-54
2022/08/14 20:40:47;;;;;;;2.83;1.23;;;21.20;70.90;;;;;;4926142;29;20028;-57
2022/08/14 20:46:24;;;;;;;6.40;1.02;;;21.10;71.10;;;;;;4926820;29;20046;-40
2022/08/14 20:48:58;;;;;;;13.48;1.63;;;21.10;71.90;;;;;;4923140;29;20111;-40
2022/08/14 20:51:30;;;;;;;36.97;2.17;;;21.40;71.70;;;;;;4921990;29;20123;-40
2022/08/14 20:54:02;;;;;;;33.85;2.00;;;21.80;71.10;;;;;;4927111;29;20028;-40
2022/08/14 20:56:33;;;;;;;7.38;1.20;;;22.00;70.60;;;;;;4925542;29;20032;-40
2022/08/14 20:59:18;;;;;;;22.70;2.22;;;22.10;70.30;;;;;;4927857;29;20035;-40
2022/08/14 21:02:16;;;;;;;14.25;1.90;;;22.30;70.10;;;;;;4930091;29;20038;-40
2022/08/14 21:04:53;;;;;;;18.30;1.77;;;22.40;70.00;;;;;;4924232;29;20035;-39
2022/08/14 21:07:20;;;;;;;10.27;1.83;;;22.40;69.70;;;;;;4928652;29;20044;-39
2022/08/14 21:09:51;;;;;;;15.75;1.88;;;22.50;69.60;;;;;;4932876;29;20054;-39
2022/08/14 21:12:18;;;;;;;13.85;1.70;;;22.60;69.60;;;;;;4933198;29;20032;-40
2022/08/14 21:14:44;;;;;;;15.55;1.67;;;22.60;69.40;;;;;;4925741;29;20024;-39
2022/08/14 21:17:13;;;;;;;8.00;1.50;;;22.70;69.40;;;;;;4920052;29;20361;-38
2022/08/14 21:19:44;;;;;;;11.27;1.70;;;22.80;69.30;;;;;;4923369;29;20064;-39
2022/08/14 21:22:11;;;;;;;13.48;1.48;;;22.80;69.20;;;;;;4927460;29;20024;-39
2022/08/14 21:24:37;;;;;;;8.45;1.75;;;22.80;69.20;;;;;;4922182;29;20123;-38
2022/08/14 21:27:08;;;;;;;6.35;1.30;;;22.90;69.10;;;;;;4923330;29;20575;-38
2022/08/14 21:29:34;;;;;;;10.25;1.90;;;22.90;69.10;;;;;;4923974;29;20040;-38
2022/08/14 21:32:00;;;;;;;12.52;1.55;;;23.00;69.00;;;;;;4925816;29;20444;-39
